sensor_id;sensor_type;location;lat;lon;timestamp;P1;durP1;ratioP1;P2;durP2;ratioP2
64500;SDS011;50874;24.150;-110.320;2023-11-18T00:01:56;24.65;;;5.05;;
64500;SDS011;50874;24.150;-110.320;2023-11-18T00:04:23;18.90;;;3.25;;
64500;SDS011;50874;24.150;-110.320;2023-11-18T00:06:49;18.38;;;3.45;;
64500;SDS011;50874;24.150;-110.320;2023-11-18T00:09:17;12.10;;;2.88;;
64500;SDS011;50874;24.150;-110.320;2023-11-18T00:11:43;19.52;;;3.80;;
64500;SDS011;50874;24.150;-110.320;2023-11-18T00:14:09;9.85;;;3.53;;
64500;SDS011;50874;24.150;-110.320;2023-11-18T00:16:36;11.40;;;3.33;;
64500;SDS011;50874;24.150;-110.320;2023-11-18T00:19:03;18.50;;;3.92;;
64500;SDS011;50874;24.150;-110.320;2023-11-18T00:21:34;12.05;;;2.92;;
64500;SDS011;50874;24.150;-110.320;2023-11-18T00:24:01;18.55;;;3.72;;
64500;SDS011;50874;24.150;-110.320;2023-11-18T00:26:28;20.83;;;3.78;;
64500;SDS011;50874;24.150;-110.320;2023-11-18T00:28:54;13.25;;;3.20;;
64500;SDS011;50874;24.150;-110.320;2023-11-18T00:31:21;18.90;;;3.28;;
64500;SDS011;50874;24.150;-110.320;2023-11-18T00:33:47;19.33;;;3.60;;
64500;SDS011;50874;24.150;-110.320;2023-11-18T00:36:16;31.20;;;4.60;;
64500;SDS011;50874;24.150;-110.320;2023-11-18T00:38:53;14.93;;;3.80;;
64500;SDS011;50874;24.150;-110.320;2023-11-18T00:41:23;88.60;;;9.70;;
64500;SDS011;50874;24.150;-110.320;2023-11-18T00:43:59;18.90;;;3.40;;
64500;SDS011;50874;24.150;-110.320;2023-11-18T00:46:25;43.10;;;5.63;;
64500;SDS011;50874;24.150;-110.320;2023-11-18T00:48:52;71.60;;;6.70;;
64500;SDS011;50874;24.150;-110.320;2023-11-18T00:51:19;15.85;;;3.58;;
64500;SDS011;50874;24.150;-110.320;2023-11-18T00:53:45;23.55;;;4.22;;
64500;SDS011;50874;24.150;-110.320;2023-11-18T00:56:18;80.43;;;8.85;;
64500;SDS011;50874;24.150;-110.320;2023-11-18T00:58:47;10.45;;;3.15;;
64500;SDS011;50874;24.150;-110.320;2023-11-18T01:01:14;47.08;;;6.20;;
64500;SDS011;50874;24.150;-110.320;2023-11-18T01:03:46;19.58;;;3.20;;
64500;SDS011;50874;24.150;-110.320;2023-11-18T01:06:13;11.55;;;3.17;;
64500;SDS011;50874;24.150;-110.320;2023-11-18T01:08:46;16.27;;;3.10;;
64500;SDS011;50874;24.150;-110.320;2023-11-18T01:11:16;25.20;;;3.20;;
64500;SDS011;50874;24.150;-110.320;2023-11-18T01:13:48;18.17;;;3.60;;
64500;SDS011;50874;24.150;-110.320;2023-11-18T01:16:14;30.13;;;4.85;;
64500;SDS011;50874;24.150;-110.320;2023-11-18T01:18:42;17.70;;;3.75;;
64500;SDS011;50874;24.150;-110.320;2023-11-18T01:21:09;20.15;;;2.95;;
64500;SDS011;50874;24.150;-110.320;2023-11-18T01:23:36;16.73;;;3.47;;
64500;SDS011;50874;24.150;-110.320;2023-11-18T01:26:04;12.90;;;3.05;;
64500;SDS011;50874;24.150;-110.320;2023-11-18T01:28:31;13.80;;;2.88;;
64500;SDS011;50874;24.150;-110.320;2023-11-18T01:31:02;10.10;;;2.95;;
64500;SDS011;50874;24.150;-110.320;2023-11-18T01:33:29;29.50;;;3.97;;
64500;SDS011;50874;24.150;-110.320;2023-11-18T01:35:58;32.03;;;7.82;;
64500;SDS011;50874;24.150;-110.320;2023-11-18T01:38:24;14.68;;;5.03;;
64500;SDS011;50874;24.150;-110.320;2023-11-18T01:40:51;14.95;;;4.57;;
64500;SDS011;50874;24.150;-110.320;2023-11-18T01:43:20;16.70;;;4.30;;
64500;SDS011;50874;24.150;-110.320;2023-11-18T01:45:47;73.40;;;8.98;;
64500;SDS011;50874;24.150;-110.320;2023-11-18T01:48:14;16.90;;;3.13;;
64500;SDS011;50874;24.150;-110.320;2023-11-18T01:50:41;17.30;;;3.28;;
64500;SDS011;50874;24.150;-110.320;2023-11-18T01:53:10;18.05;;;3.17;;
64500;SDS011;50874;24.150;-110.320;2023-11-18T01:55:40;10.05;;;2.42;;
64500;SDS011;50874;24.150;-110.320;2023-11-18T01:58:07;35.67;;;5.07;;
64500;SDS011;50874;24.150;-110.320;2023-11-18T02:00:36;13.55;;;4.25;;
64500;SDS011;50874;24.150;-110.320;2023-11-18T02:05:52;20.73;;;5.47;;
64500;SDS011;50874;24.150;-110.320;2023-11-18T02:08:19;19.33;;;4.75;;
64500;SDS011;50874;24.150;-110.320;2023-11-18T02:10:47;22.45;;;5.28;;
64500;SDS011;50874;24.150;-110.320;2023-11-18T02:13:19;17.13;;;5.32;;
64500;SDS011;50874;24.150;-110.320;2023-11-18T02:15:55;14.65;;;3.67;;
64500;SDS011;50874;24.150;-110.320;2023-11-18T02:18:26;18.20;;;4.07;;
64500;SDS011;50874;24.150;-110.320;2023-11-18T02:20:54;13.25;;;3.38;;
64500;SDS011;50874;24.150;-110.320;2023-11-18T02:23:25;28.08;;;3.67;;
64500;SDS011;50874;24.150;-110.320;2023-11-18T02:25:52;17.83;;;3.63;;
64500;SDS011;50874;24.150;-110.320;2023-11-18T02:28:20;17.83;;;3.55;;
64500;SDS011;50874;24.150;-110.320;2023-11-18T02:30:47;35.67;;;4.93;;
64500;SDS011;50874;24.150;-110.320;2023-11-18T02:33:50;12.23;;;3.63;;
64500;SDS011;50874;24.150;-110.320;2023-11-18T02:36:58;69.07;;;7.22;;
64500;SDS011;50874;24.150;-110.320;2023-11-18T02:39:27;19.67;;;4.22;;
64500;SDS011;50874;24.150;-110.320;2023-11-18T02:42:04;119.60;;;15.98;;
64500;SDS011;50874;24.150;-110.320;2023-11-18T02:44:34;21.48;;;4.63;;
64500;SDS011;50874;24.150;-110.320;2023-11-18T02:47:02;18.30;;;4.00;;
64500;SDS011;50874;24.150;-110.320;2023-11-18T02:49:34;19.83;;;3.35;;
64500;SDS011;50874;24.150;-110.320;2023-11-18T02:52:01;65.53;;;7.38;;
64500;SDS011;50874;24.150;-110.320;2023-11-18T02:54:28;16.02;;;5.40;;
64500;SDS011;50874;24.150;-110.320;2023-11-18T02:56:54;27.13;;;6.93;;
64500;SDS011;50874;24.150;-110.320;2023-11-18T02:59:21;10.90;;;4.38;;
64500;SDS011;50874;24.150;-110.320;2023-11-18T03:01:48;20.35;;;3.92;;
64500;SDS011;50874;24.150;-110.320;2023-11-18T03:04:18;19.67;;;3.53;;
64500;SDS011;50874;24.150;-110.320;2023-11-18T03:06:45;25.17;;;4.57;;
64500;SDS011;50874;24.150;-110.320;2023-11-18T03:09:12;15.43;;;3.38;;
64500;SDS011;50874;24.150;-110.320;2023-11-18T03:11:39;15.45;;;4.40;;
64500;SDS011;50874;24.150;-110.320;2023-11-18T03:14:05;12.95;;;3.63;;
64500;SDS011;50874;24.150;-110.320;2023-11-18T03:16:36;19.50;;;3.95;;
64500;SDS011;50874;24.150;-110.320;2023-11-18T03:19:04;14.43;;;3.40;;
64500;SDS011;50874;24.150;-110.320;2023-11-18T03:21:30;19.00;;;4.57;;
64500;SDS011;50874;24.150;-110.320;2023-11-18T03:23:57;19.70;;;4.03;;
64500;SDS011;50874;24.150;-110.320;2023-11-18T03:26:23;19.58;;;4.00;;
64500;SDS011;50874;24.150;-110.320;2023-11-18T03:28:52;18.10;;;3.38;;
64500;SDS011;50874;24.150;-110.320;2023-11-18T03:31:18;18.10;;;4.22;;
64500;SDS011;50874;24.150;-110.320;2023-11-18T03:33:45;19.25;;;4.70;;
64500;SDS011;50874;24.150;-110.320;2023-11-18T03:36:11;23.58;;;4.97;;
64500;SDS011;50874;24.150;-110.320;2023-11-18T03:38:38;15.52;;;4.07;;
64500;SDS011;50874;24.150;-110.320;2023-11-18T03:41:04;24.63;;;4.32;;
64500;SDS011;50874;24.150;-110.320;2023-11-18T03:43:33;25.05;;;6.20;;
64500;SDS011;50874;24.150;-110.320;2023-11-18T03:46:03;21.90;;;8.05;;
64500;SDS011;50874;24.150;-110.320;2023-11-18T03:48:30;24.48;;;6.53;;
64500;SDS011;50874;24.150;-110.320;2023-11-18T03:50:56;27.85;;;7.55;;
64500;SDS011;50874;24.150;-110.320;2023-11-18T03:53:23;27.63;;;7.07;;
64500;SDS011;50874;24.150;-110.320;2023-11-18T03:55:49;23.25;;;10.32;;
64500;SDS011;50874;24.150;-110.320;2023-11-18T03:58:17;20.98;;;6.63;;
64500;SDS011;50874;24.150;-110.320;2023-11-18T04:00:43;22.25;;;7.68;;
64500;SDS011;50874;24.150;-110.320;2023-11-18T04:03:13;23.70;;;7.07;;
64500;SDS011;50874;24.150;-110.320;2023-11-18T04:05:39;21.70;;;7.35;;
64500;SDS011;50874;24.150;-110.320;2023-11-18T04:08:06;22.92;;;4.50;;
64500;SDS011;50874;24.150;-110.320;2023-11-18T04:10:32;24.00;;;5.00;;
64500;SDS011;50874;24.150;-110.320;2023-11-18T04:12:58;15.13;;;3.78;;
64500;SDS011;50874;24.150;-110.320;2023-11-18T04:15:25;17.33;;;3.25;;
64500;SDS011;50874;24.150;-110.320;2023-11-18T04:17:52;18.63;;;4.28;;
64500;SDS011;50874;24.150;-110.320;2023-11-18T04:20:18;21.95;;;4.07;;
64500;SDS011;50874;24.150;-110.320;2023-11-18T04:22:45;15.43;;;4.13;;
64500;SDS011;50874;24.150;-110.320;2023-11-18T04:25:11;18.10;;;4.40;;
64500;SDS011;50874;24.150;-110.320;2023-11-18T04:27:38;23.42;;;4.72;;
64500;SDS011;50874;24.150;-110.320;2023-11-18T04:30:05;17.60;;;4.22;;
64500;SDS011;50874;24.150;-110.320;2023-11-18T04:32:33;23.77;;;4.45;;
64500;SDS011;50874;24.150;-110.320;2023-11-18T04:35:00;19.23;;;4.00;;
64500;SDS011;50874;24.150;-110.320;2023-11-18T04:37:35;17.73;;;2.90;;
64500;SDS011;50874;24.150;-110.320;2023-11-18T04:40:02;32.38;;;3.83;;
64500;SDS011;50874;24.150;-110.320;2023-11-18T04:42:29;32.83;;;3.78;;
64500;SDS011;50874;24.150;-110.320;2023-11-18T04:44:56;18.80;;;4.22;;
64500;SDS011;50874;24.150;-110.320;2023-11-18T04:47:23;48.38;;;6.55;;
64500;SDS011;50874;24.150;-110.320;2023-11-18T04:49:50;34.65;;;3.70;;
64500;SDS011;50874;24.150;-110.320;2023-11-18T04:52:17;18.52;;;3.63;;
64500;SDS011;50874;24.150;-110.320;2023-11-18T04:54:44;13.38;;;3.15;;
64500;SDS011;50874;24.150;-110.320;2023-11-18T04:57:13;15.40;;;3.22;;
64500;SDS011;50874;24.150;-110.320;2023-11-18T04:59:41;20.83;;;3.78;;
64500;SDS011;50874;24.150;-110.320;2023-11-18T05:02:09;59.13;;;7.68;;
64500;SDS011;50874;24.150;-110.320;2023-11-18T05:04:35;26.42;;;5.15;;
64500;SDS011;50874;24.150;-110.320;2023-11-18T05:07:01;26.52;;;4.28;;
64500;SDS011;50874;24.150;-110.320;2023-11-18T05:09:29;24.90;;;4.05;;
64500;SDS011;50874;24.150;-110.320;2023-11-18T05:11:57;18.20;;;3.67;;
64500;SDS011;50874;24.150;-110.320;2023-11-18T05:14:24;20.02;;;3.83;;
64500;SDS011;50874;24.150;-110.320;2023-11-18T05:16:51;22.45;;;3.85;;
64500;SDS011;50874;24.150;-110.320;2023-11-18T05:19:18;14.55;;;3.53;;
64500;SDS011;50874;24.150;-110.320;2023-11-18T05:21:45;33.38;;;4.32;;
64500;SDS011;50874;24.150;-110.320;2023-11-18T05:24:15;20.17;;;5.00;;
64500;SDS011;50874;24.150;-110.320;2023-11-18T05:26:41;45.92;;;7.05;;
64500;SDS011;50874;24.150;-110.320;2023-11-18T05:29:07;19.85;;;3.03;;
64500;SDS011;50874;24.150;-110.320;2023-11-18T05:31:34;13.77;;;2.22;;
64500;SDS011;50874;24.150;-110.320;2023-11-18T05:34:02;38.50;;;4.55;;
64500;SDS011;50874;24.150;-110.320;2023-11-18T05:36:28;13.40;;;2.03;;
64500;SDS011;50874;24.150;-110.320;2023-11-18T05:39:02;18.88;;;2.78;;
64500;SDS011;50874;24.150;-110.320;2023-11-18T05:41:30;19.33;;;3.85;;
64500;SDS011;50874;24.150;-110.320;2023-11-18T05:43:57;14.77;;;2.40;;
64500;SDS011;50874;24.150;-110.320;2023-11-18T05:46:24;17.98;;;3.00;;
64500;SDS011;50874;24.150;-110.320;2023-11-18T05:48:54;20.90;;;3.05;;
64500;SDS011;50874;24.150;-110.320;2023-11-18T05:51:22;7.85;;;2.63;;
64500;SDS011;50874;24.150;-110.320;2023-11-18T05:53:50;9.75;;;2.25;;
64500;SDS011;50874;24.150;-110.320;2023-11-18T05:56:17;9.43;;;2.05;;
64500;SDS011;50874;24.150;-110.320;2023-11-18T05:58:44;9.27;;;2.15;;
64500;SDS011;50874;24.150;-110.320;2023-11-18T06:01:11;19.15;;;3.25;;
64500;SDS011;50874;24.150;-110.320;2023-11-18T06:03:39;16.55;;;2.65;;
64500;SDS011;50874;24.150;-110.320;2023-11-18T06:06:07;12.95;;;2.53;;
64500;SDS011;50874;24.150;-110.320;2023-11-18T06:08:35;15.68;;;2.40;;
64500;SDS011;50874;24.150;-110.320;2023-11-18T06:11:09;19.63;;;2.95;;
64500;SDS011;50874;24.150;-110.320;2023-11-18T06:13:42;24.73;;;2.72;;
64500;SDS011;50874;24.150;-110.320;2023-11-18T06:18:41;9.73;;;2.28;;
64500;SDS011;50874;24.150;-110.320;2023-11-18T06:21:13;12.43;;;2.28;;
64500;SDS011;50874;24.150;-110.320;2023-11-18T06:23:41;10.05;;;2.28;;
64500;SDS011;50874;24.150;-110.320;2023-11-18T06:26:08;11.23;;;2.15;;
64500;SDS011;50874;24.150;-110.320;2023-11-18T06:28:36;15.85;;;2.63;;
64500;SDS011;50874;24.150;-110.320;2023-11-18T06:31:06;25.42;;;3.58;;
64500;SDS011;50874;24.150;-110.320;2023-11-18T06:33:43;10.52;;;2.47;;
64500;SDS011;50874;24.150;-110.320;2023-11-18T06:38:40;17.92;;;2.70;;
64500;SDS011;50874;24.150;-110.320;2023-11-18T06:41:07;13.63;;;2.47;;
64500;SDS011;50874;24.150;-110.320;2023-11-18T06:43:37;10.20;;;2.60;;
64500;SDS011;50874;24.150;-110.320;2023-11-18T06:46:17;15.18;;;2.47;;
64500;SDS011;50874;24.150;-110.320;2023-11-18T06:48:50;14.38;;;2.85;;
64500;SDS011;50874;24.150;-110.320;2023-11-18T06:51:20;12.55;;;2.83;;
64500;SDS011;50874;24.150;-110.320;2023-11-18T06:53:53;12.93;;;2.28;;
64500;SDS011;50874;24.150;-110.320;2023-11-18T06:56:20;15.05;;;2.50;;
64500;SDS011;50874;24.150;-110.320;2023-11-18T06:58:47;16.73;;;3.33;;
64500;SDS011;50874;24.150;-110.320;2023-11-18T07:01:13;20.90;;;3.97;;
64500;SDS011;50874;24.150;-110.320;2023-11-18T07:03:41;24.38;;;3.75;;
64500;SDS011;50874;24.150;-110.320;2023-11-18T07:06:08;23.25;;;3.13;;
64500;SDS011;50874;24.150;-110.320;2023-11-18T07:08:35;12.93;;;2.65;;
64500;SDS011;50874;24.150;-110.320;2023-11-18T07:11:02;25.23;;;3.55;;
64500;SDS011;50874;24.150;-110.320;2023-11-18T07:13:29;20.35;;;3.92;;
64500;SDS011;50874;24.150;-110.320;2023-11-18T07:15:56;21.65;;;3.10;;
64500;SDS011;50874;24.150;-110.320;2023-11-18T07:18:23;20.48;;;3.15;;
64500;SDS011;50874;24.150;-110.320;2023-11-18T07:20:49;23.88;;;3.38;;
64500;SDS011;50874;24.150;-110.320;2023-11-18T07:23:19;14.80;;;2.50;;
64500;SDS011;50874;24.150;-110.320;2023-11-18T07:25:46;8.45;;;2.60;;
64500;SDS011;50874;24.150;-110.320;2023-11-18T07:28:12;22.70;;;3.13;;
64500;SDS011;50874;24.150;-110.320;2023-11-18T07:30:45;11.20;;;1.90;;
64500;SDS011;50874;24.150;-110.320;2023-11-18T07:33:18;13.25;;;2.15;;
64500;SDS011;50874;24.150;-110.320;2023-11-18T07:35:46;14.05;;;2.83;;
64500;SDS011;50874;24.150;-110.320;2023-11-18T07:38:13;8.95;;;2.20;;
64500;SDS011;50874;24.150;-110.320;2023-11-18T07:40:41;11.50;;;2.15;;
64500;SDS011;50874;24.150;-110.320;2023-11-18T07:43:16;12.38;;;1.85;;
64500;SDS011;50874;24.150;-110.320;2023-11-18T07:45:46;11.02;;;2.28;;
64500;SDS011;50874;24.150;-110.320;2023-11-18T07:48:18;6.53;;;1.95;;
64500;SDS011;50874;24.150;-110.320;2023-11-18T07:50:46;5.72;;;1.40;;
64500;SDS011;50874;24.150;-110.320;2023-11-18T07:53:13;7.45;;;1.73;;
64500;SDS011;50874;24.150;-110.320;2023-11-18T07:55:40;9.88;;;1.40;;
64500;SDS011;50874;24.150;-110.320;2023-11-18T07:58:06;7.57;;;1.63;;
64500;SDS011;50874;24.150;-110.320;2023-11-18T08:00:39;5.53;;;1.20;;
64500;SDS011;50874;24.150;-110.320;2023-11-18T08:03:08;5.72;;;1.60;;
64500;SDS011;50874;24.150;-110.320;2023-11-18T08:05:38;9.43;;;1.80;;
64500;SDS011;50874;24.150;-110.320;2023-11-18T08:08:06;21.63;;;2.75;;
64500;SDS011;50874;24.150;-110.320;2023-11-18T08:10:34;13.20;;;2.67;;
64500;SDS011;50874;24.150;-110.320;2023-11-18T08:13:04;12.45;;;1.60;;
64500;SDS011;50874;24.150;-110.320;2023-11-18T08:15:32;5.65;;;1.33;;
64500;SDS011;50874;24.150;-110.320;2023-11-18T08:17:58;4.03;;;1.35;;
64500;SDS011;50874;24.150;-110.320;2023-11-18T08:20:25;5.78;;;1.60;;
64500;SDS011;50874;24.150;-110.320;2023-11-18T08:22:52;17.27;;;1.90;;
64500;SDS011;50874;24.150;-110.320;2023-11-18T08:25:18;8.32;;;1.85;;
64500;SDS011;50874;24.150;-110.320;2023-11-18T08:27:45;11.95;;;1.75;;
64500;SDS011;50874;24.150;-110.320;2023-11-18T08:30:12;9.80;;;1.48;;
64500;SDS011;50874;24.150;-110.320;2023-11-18T08:32:39;6.15;;;1.60;;
64500;SDS011;50874;24.150;-110.320;2023-11-18T08:35:09;5.90;;;1.17;;
64500;SDS011;50874;24.150;-110.320;2023-11-18T08:37:38;10.15;;;1.65;;
64500;SDS011;50874;24.150;-110.320;2023-11-18T08:40:06;3.15;;;1.10;;
64500;SDS011;50874;24.150;-110.320;2023-11-18T08:42:49;7.70;;;1.73;;
64500;SDS011;50874;24.150;-110.320;2023-11-18T08:45:22;8.68;;;1.63;;
64500;SDS011;50874;24.150;-110.320;2023-11-18T08:47:55;10.98;;;1.58;;
64500;SDS011;50874;24.150;-110.320;2023-11-18T08:50:23;11.13;;;1.73;;
64500;SDS011;50874;24.150;-110.320;2023-11-18T08:52:50;8.35;;;1.45;;
64500;SDS011;50874;24.150;-110.320;2023-11-18T08:55:24;6.03;;;1.20;;
64500;SDS011;50874;24.150;-110.320;2023-11-18T08:58:16;6.47;;;1.30;;
64500;SDS011;50874;24.150;-110.320;2023-11-18T09:00:50;3.92;;;1.45;;
64500;SDS011;50874;24.150;-110.320;2023-11-18T09:06:05;6.82;;;1.23;;
64500;SDS011;50874;24.150;-110.320;2023-11-18T09:08:42;7.28;;;1.13;;
64500;SDS011;50874;24.150;-110.320;2023-11-18T09:11:17;7.43;;;1.63;;
64500;SDS011;50874;24.150;-110.320;2023-11-18T09:13:48;6.00;;;1.10;;
64500;SDS011;50874;24.150;-110.320;2023-11-18T09:16:19;4.70;;;1.40;;
64500;SDS011;50874;24.150;-110.320;2023-11-18T09:18:47;4.63;;;1.52;;
64500;SDS011;50874;24.150;-110.320;2023-11-18T09:21:16;7.82;;;1.35;;
64500;SDS011;50874;24.150;-110.320;2023-11-18T09:23:50;6.32;;;1.48;;
64500;SDS011;50874;24.150;-110.320;2023-11-18T09:26:17;9.55;;;1.40;;
64500;SDS011;50874;24.150;-110.320;2023-11-18T09:28:43;8.90;;;1.15;;
64500;SDS011;50874;24.150;-110.320;2023-11-18T09:31:10;5.65;;;1.08;;
64500;SDS011;50874;24.150;-110.320;2023-11-18T09:33:37;12.60;;;2.05;;
64500;SDS011;50874;24.150;-110.320;2023-11-18T09:36:06;13.30;;;1.85;;
64500;SDS011;50874;24.150;-110.320;2023-11-18T09:38:36;4.05;;;1.30;;
64500;SDS011;50874;24.150;-110.320;2023-11-18T09:41:10;5.50;;;1.00;;
64500;SDS011;50874;24.150;-110.320;2023-11-18T09:43:37;2.63;;;1.42;;
64500;SDS011;50874;24.150;-110.320;2023-11-18T09:46:13;6.00;;;1.30;;
64500;SDS011;50874;24.150;-110.320;2023-11-18T09:48:49;4.43;;;1.30;;
64500;SDS011;50874;24.150;-110.320;2023-11-18T09:51:25;4.68;;;1.17;;
64500;SDS011;50874;24.150;-110.320;2023-11-18T09:54:01;8.88;;;1.80;;
64500;SDS011;50874;24.150;-110.320;2023-11-18T09:56:55;12.07;;;1.60;;
64500;SDS011;50874;24.150;-110.320;2023-11-18T09:59:47;4.68;;;1.25;;
64500;SDS011;50874;24.150;-110.320;2023-11-18T10:02:24;3.50;;;1.20;;
64500;SDS011;50874;24.150;-110.320;2023-11-18T10:04:54;9.05;;;1.55;;
64500;SDS011;50874;24.150;-110.320;2023-11-18T10:07:26;3.60;;;1.48;;
64500;SDS011;50874;24.150;-110.320;2023-11-18T10:09:57;3.08;;;1.10;;
64500;SDS011;50874;24.150;-110.320;2023-11-18T10:12:24;3.08;;;1.17;;
64500;SDS011;50874;24.150;-110.320;2023-11-18T10:14:52;5.25;;;1.40;;
64500;SDS011;50874;24.150;-110.320;2023-11-18T10:17:18;4.72;;;1.30;;
64500;SDS011;50874;24.150;-110.320;2023-11-18T10:22:38;4.80;;;1.02;;
64500;SDS011;50874;24.150;-110.320;2023-11-18T10:25:06;5.15;;;1.35;;
64500;SDS011;50874;24.150;-110.320;2023-11-18T10:27:32;3.13;;;1.27;;
64500;SDS011;50874;24.150;-110.320;2023-11-18T10:30:03;3.17;;;1.42;;
64500;SDS011;50874;24.150;-110.320;2023-11-18T10:35:31;5.30;;;0.95;;
64500;SDS011;50874;24.150;-110.320;2023-11-18T10:38:01;3.78;;;1.27;;
64500;SDS011;50874;24.150;-110.320;2023-11-18T10:40:33;5.35;;;1.17;;
64500;SDS011;50874;24.150;-110.320;2023-11-18T10:43:02;2.97;;;0.90;;
64500;SDS011;50874;24.150;-110.320;2023-11-18T10:45:35;3.25;;;1.08;;
64500;SDS011;50874;24.150;-110.320;2023-11-18T10:48:05;1.70;;;0.77;;
64500;SDS011;50874;24.150;-110.320;2023-11-18T10:50:32;3.50;;;1.48;;
64500;SDS011;50874;24.150;-110.320;2023-11-18T10:53:02;4.75;;;0.90;;
64500;SDS011;50874;24.150;-110.320;2023-11-18T10:55:37;4.78;;;1.00;;
64500;SDS011;50874;24.150;-110.320;2023-11-18T10:58:05;5.55;;;1.70;;
64500;SDS011;50874;24.150;-110.320;2023-11-18T11:00:48;3.03;;;1.10;;
64500;SDS011;50874;24.150;-110.320;2023-11-18T11:03:25;2.72;;;1.10;;
64500;SDS011;50874;24.150;-110.320;2023-11-18T11:05:58;4.53;;;1.00;;
64500;SDS011;50874;24.150;-110.320;2023-11-18T11:08:25;2.75;;;0.82;;
64500;SDS011;50874;24.150;-110.320;2023-11-18T11:10:53;6.03;;;1.27;;
64500;SDS011;50874;24.150;-110.320;2023-11-18T11:13:23;3.00;;;0.90;;
64500;SDS011;50874;24.150;-110.320;2023-11-18T11:15:52;5.15;;;1.60;;
64500;SDS011;50874;24.150;-110.320;2023-11-18T11:18:21;3.25;;;1.05;;
64500;SDS011;50874;24.150;-110.320;2023-11-18T11:23:49;1.95;;;0.98;;
64500;SDS011;50874;24.150;-110.320;2023-11-18T11:26:26;3.42;;;1.20;;
64500;SDS011;50874;24.150;-110.320;2023-11-18T11:34:56;2.10;;;1.02;;
64500;SDS011;50874;24.150;-110.320;2023-11-18T11:37:33;2.72;;;0.80;;
64500;SDS011;50874;24.150;-110.320;2023-11-18T11:40:03;4.95;;;0.95;;
64500;SDS011;50874;24.150;-110.320;2023-11-18T11:42:34;3.40;;;0.90;;
64500;SDS011;50874;24.150;-110.320;2023-11-18T11:45:01;2.38;;;0.70;;
64500;SDS011;50874;24.150;-110.320;2023-11-18T11:47:28;4.05;;;0.90;;
64500;SDS011;50874;24.150;-110.320;2023-11-18T11:50:14;3.97;;;1.02;;
64500;SDS011;50874;24.150;-110.320;2023-11-18T11:53:02;5.32;;;0.93;;
64500;SDS011;50874;24.150;-110.320;2023-11-18T11:55:47;3.22;;;0.85;;
64500;SDS011;50874;24.150;-110.320;2023-11-18T12:01:00;10.13;;;1.70;;
64500;SDS011;50874;24.150;-110.320;2023-11-18T12:03:51;3.13;;;0.65;;
64500;SDS011;50874;24.150;-110.320;2023-11-18T12:06:23;3.70;;;0.82;;
64500;SDS011;50874;24.150;-110.320;2023-11-18T12:08:52;4.75;;;1.13;;
64500;SDS011;50874;24.150;-110.320;2023-11-18T12:11:20;14.82;;;1.67;;
64500;SDS011;50874;24.150;-110.320;2023-11-18T12:14:06;11.23;;;1.52;;
64500;SDS011;50874;24.150;-110.320;2023-11-18T12:17:05;6.38;;;0.98;;
64500;SDS011;50874;24.150;-110.320;2023-11-18T12:19:38;3.17;;;0.98;;
64500;SDS011;50874;24.150;-110.320;2023-11-18T12:22:22;7.20;;;0.80;;
64500;SDS011;50874;24.150;-110.320;2023-11-18T12:32:59;4.05;;;1.15;;
64500;SDS011;50874;24.150;-110.320;2023-11-18T12:38:24;2.38;;;0.65;;
64500;SDS011;50874;24.150;-110.320;2023-11-18T12:46:54;3.95;;;0.73;;
64500;SDS011;50874;24.150;-110.320;2023-11-18T12:49:44;2.17;;;0.77;;
64500;SDS011;50874;24.150;-110.320;2023-11-18T12:52:15;3.25;;;0.65;;
64500;SDS011;50874;24.150;-110.320;2023-11-18T12:54:44;2.80;;;0.77;;
64500;SDS011;50874;24.150;-110.320;2023-11-18T12:57:36;7.75;;;0.85;;
64500;SDS011;50874;24.150;-110.320;2023-11-18T13:00:04;8.32;;;0.85;;
64500;SDS011;50874;24.150;-110.320;2023-11-18T13:02:36;2.63;;;0.70;;
64500;SDS011;50874;24.150;-110.320;2023-11-18T13:05:07;1.52;;;0.47;;
64500;SDS011;50874;24.150;-110.320;2023-11-18T13:07:38;5.45;;;0.80;;
64500;SDS011;50874;24.150;-110.320;2023-11-18T13:10:06;32.58;;;3.40;;
64500;SDS011;50874;24.150;-110.320;2023-11-18T13:12:33;6.65;;;0.95;;
64500;SDS011;50874;24.150;-110.320;2023-11-18T13:14:59;4.25;;;0.80;;
64500;SDS011;50874;24.150;-110.320;2023-11-18T13:17:26;5.03;;;1.48;;
64500;SDS011;50874;24.150;-110.320;2023-11-18T13:19:53;5.35;;;1.00;;
64500;SDS011;50874;24.150;-110.320;2023-11-18T13:22:19;17.27;;;1.88;;
64500;SDS011;50874;24.150;-110.320;2023-11-18T13:24:47;17.85;;;2.05;;
64500;SDS011;50874;24.150;-110.320;2023-11-18T13:27:15;15.20;;;2.42;;
64500;SDS011;50874;24.150;-110.320;2023-11-18T13:29:47;10.05;;;1.23;;
64500;SDS011;50874;24.150;-110.320;2023-11-18T13:32:15;6.38;;;1.10;;
64500;SDS011;50874;24.150;-110.320;2023-11-18T13:34:43;8.43;;;1.08;;
64500;SDS011;50874;24.150;-110.320;2023-11-18T13:37:10;5.15;;;0.73;;
64500;SDS011;50874;24.150;-110.320;2023-11-18T13:39:44;19.25;;;2.30;;
64500;SDS011;50874;24.150;-110.320;2023-11-18T13:42:19;26.60;;;4.03;;
64500;SDS011;50874;24.150;-110.320;2023-11-18T13:44:46;32.92;;;3.28;;
64500;SDS011;50874;24.150;-110.320;2023-11-18T13:47:17;24.45;;;3.20;;
64500;SDS011;50874;24.150;-110.320;2023-11-18T13:49:44;26.10;;;3.58;;
64500;SDS011;50874;24.150;-110.320;2023-11-18T13:52:12;31.08;;;3.92;;
64500;SDS011;50874;24.150;-110.320;2023-11-18T13:54:42;30.42;;;3.33;;
64500;SDS011;50874;24.150;-110.320;2023-11-18T13:57:11;11.00;;;1.83;;
64500;SDS011;50874;24.150;-110.320;2023-11-18T13:59:38;11.32;;;1.98;;
64500;SDS011;50874;24.150;-110.320;2023-11-18T14:02:05;14.52;;;2.05;;
64500;SDS011;50874;24.150;-110.320;2023-11-18T14:04:34;37.78;;;3.53;;
64500;SDS011;50874;24.150;-110.320;2023-11-18T14:07:01;32.75;;;3.00;;
64500;SDS011;50874;24.150;-110.320;2023-11-18T14:09:31;30.45;;;3.75;;
64500;SDS011;50874;24.150;-110.320;2023-11-18T14:12:02;26.33;;;3.20;;
64500;SDS011;50874;24.150;-110.320;2023-11-18T14:14:31;28.88;;;3.05;;
64500;SDS011;50874;24.150;-110.320;2023-11-18T14:16:58;24.65;;;3.13;;
64500;SDS011;50874;24.150;-110.320;2023-11-18T14:19:25;18.15;;;3.00;;
64500;SDS011;50874;24.150;-110.320;2023-11-18T14:21:55;25.55;;;3.58;;
64500;SDS011;50874;24.150;-110.320;2023-11-18T14:24:21;15.65;;;2.22;;
64500;SDS011;50874;24.150;-110.320;2023-11-18T14:26:53;22.42;;;3.17;;
64500;SDS011;50874;24.150;-110.320;2023-11-18T14:29:20;24.65;;;2.95;;
64500;SDS011;50874;24.150;-110.320;2023-11-18T14:31:46;26.98;;;4.53;;
64500;SDS011;50874;24.150;-110.320;2023-11-18T14:34:13;28.95;;;2.95;;
64500;SDS011;50874;24.150;-110.320;2023-11-18T14:36:39;41.95;;;4.32;;
64500;SDS011;50874;24.150;-110.320;2023-11-18T14:39:06;36.25;;;4.40;;
64500;SDS011;50874;24.150;-110.320;2023-11-18T14:41:43;41.90;;;3.75;;
64500;SDS011;50874;24.150;-110.320;2023-11-18T14:44:11;21.33;;;3.75;;
64500;SDS011;50874;24.150;-110.320;2023-11-18T14:46:37;25.67;;;3.78;;
64500;SDS011;50874;24.150;-110.320;2023-11-18T14:49:06;35.10;;;3.70;;
64500;SDS011;50874;24.150;-110.320;2023-11-18T14:51:33;50.42;;;5.15;;
64500;SDS011;50874;24.150;-110.320;2023-11-18T14:54:01;59.17;;;5.45;;
64500;SDS011;50874;24.150;-110.320;2023-11-18T14:56:27;38.70;;;4.28;;
64500;SDS011;50874;24.150;-110.320;2023-11-18T14:58:54;43.08;;;4.18;;
64500;SDS011;50874;24.150;-110.320;2023-11-18T15:01:21;25.38;;;3.17;;